EGLL

London Heathrow Airport

Code ICAO EGLL
Code IATA LHR
Nom London Heathrow Airport
Emplacement London, England, GB
Élévation 83 pieds / 25.3 mètres
Latitude 51.47060013
Longitude -0.46194100
METAR EGLL 240020Z AUTO 24006KT 9999 NCD 14/13 Q1018
Informations extras Afficher cartes et CFS
Afficher NOTAMS
Piste Longueur Largeur Surface Élévation
09L 12799 ft 164 ft ASP 79 ft
09R 12001 ft 148 ft ASP 75 ft
27R 12799 ft 164 ft ASP 78 ft
27L 12001 ft 148 ft ASP 77 ft